ADDS METAR Data INFO
IDs: Format: Raw Decoded Include TAF

Data at: 1907 UTC 23 Apr 2018

KDTN 231853Z 27010KT 10SM FEW027 BKN035 OVC042 19/12 A3000 RMK AO2 SLP157 T01890122
KDTN 231842Z 27007KT 10SM SCT027 OVC039 19/12 A3000 RMK AO2 T01890122
KDTN 231820Z 29008KT 10SM OVC029 17/12 A3001 RMK AO2 T01720117
KDTN 231753Z 28008KT 10SM OVC035 18/11 A3001 RMK AO2 SLP161 T01780111 10189 20122 58001
KDTN 231653Z 30008KT 10SM FEW026 OVC036 18/11 A3001 RMK AO2 SLP162 T01780111
KDTN 231553Z 30006KT 10SM SCT025 OVC033 18/12 A3002 RMK AO2 SLP163 T01780117
KDTN 231551Z 31006KT 10SM SCT025 OVC033 18/12 A3002 RMK AO2
KDTN 231515Z 33008KT 10SM BKN025 BKN030 17/12 A3001 RMK AO2 T01720117
KDTN 231453Z 26006KT 10SM CLR 16/12 A3001 RMK AO2 SLP160 T01610117 51008
KDTN 231429Z 26004KT 10SM SCT024 15/11 A3001 RMK AO2 T01500111
KDTN 231353Z 23008KT 10SM OVC022 13/11 A3001 RMK AO2 SLP159 T01330111
KDTN 231253Z 26005KT 10SM OVC017 13/11 A3001 RMK AO2 SLP160 T01280106
KDTN 231153Z 25004KT 10SM OVC021 12/10 A2998 RMK AO2 SLP152 T01220100 10122 20111 53010
KDTN 231053Z AUTO 25003KT 10SM OVC023 12/10 A2996 RMK AO2 SLP145 T01170100
KDTN 230953Z AUTO 25004KT 10SM OVC019 12/10 A2996 RMK AO2 SLP144 T01220100
KDTN 230928Z AUTO 26003KT 10SM BKN020 OVC034 12/10 A2996 RMK AO2 T01170100
KDTN 230853Z AUTO 25004KT 10SM OVC036 12/10 A2995 RMK AO2 SLP141 T01220100 56009
KDTN 230832Z AUTO 26004KT 10SM SCT023 OVC039 12/09 A2996 RMK AO2 T01170094
KDTN 230753Z AUTO 25004KT 10SM BKN025 OVC030 12/09 A2995 RMK AO2 SLP142 T01170094
KDTN 230714Z AUTO 25003KT 10SM BKN025 11/09 A2996 RMK AO2 T01110094
KDTN 230653Z AUTO 26003KT 10SM FEW025 11/09 A2997 RMK AO2 SLP146 T01110094
KDTN 230553Z AUTO 28004KT 10SM CLR 12/09 A2998 RMK AO2 SLP151 T01170094 10161 20117 401720117 58004
KDTN 230453Z AUTO 28004KT 10SM FEW026 13/10 A2998 RMK AO2 SLP152 T01280100
KDTN 230446Z AUTO 26004KT 10SM SCT026 13/10 A2999 RMK AO2 T01280100
KDTN 230406Z AUTO 28005KT 10SM BKN028 14/10 A2999 RMK AO2 T01390100
KDTN 230353Z AUTO 27005KT 10SM BKN030 14/10 A2999 RMK AO2 SLP154 T01390100
KDTN 230253Z AUTO 29005KT 10SM OVC037 14/09 A2999 RMK AO2 SLP155 T01440094 53009
KDTN 230153Z 27004KT 10SM FEW044 OVC060 14/09 A2998 RMK AO2 SLP151 T01440094
KDTN 230053Z 28004KT 10SM BKN049 15/09 A2997 RMK AO2 SLP146 T01500094
KDTN 222353Z 30007KT 10SM SCT048 16/09 A2997 RMK AO2 SLP146 T01610089 10167 20139 56000
KDTN 222253Z 30012KT 10SM FEW031 OVC042 16/09 A2997 RMK AO2 SLP147 T01610089
KDTN 222153Z 30006KT 10SM OVC038 17/10 A2996 RMK AO2 SLP142 T01670100
KDTN 222053Z 30010G17KT 10SM FEW021 OVC031 16/10 A2997 RMK AO2 SLP146 T01610100 58008
KDTN 222042Z 31011KT 10SM SCT023 OVC031 16/09 A2997 RMK AO2 T01560094
KDTN 221953Z 30012G19KT 10SM BKN021 OVC029 16/11 A2998 RMK AO2 SLP151 T01560111
KDTN 221910Z 30010KT 10SM BKN015 BKN021 OVC027 15/11 A2999 RMK AO2 T01500111
KDTN 221853Z 28008KT 10SM BKN014 OVC021 14/11 A2999 RMK AO2 SLP155 T01440111
KDTN 221753Z 29009KT 10SM BKN012 OVC017 14/12 A2999 RMK AO2 SLP155 T01390117 10161 20139 51007
KDTN 221746Z 29009KT 10SM OVC013 14/12 A2999 RMK AO2 T01440117
KDTN 221733Z 31010KT 10SM SCT009 OVC015 14/12 A3000 RMK AO2 T01440122
KDTN 221707Z 29010KT 10SM BKN009 OVC014 14/12 A2999 RMK AO2 T01390117
KDTN 221653Z 30010KT 10SM BKN012 OVC019 15/13 A2999 RMK AO2 SLP153 T01500128
KDTN 221636Z 31009KT 10SM BKN009 OVC014 14/12 A2999 RMK AO2 T01440122
KDTN 221608Z 29009KT 10SM BKN011 OVC016 15/13 A2999 RMK AO2 CIG 008V012 T01500128
KDTN 221553Z 31005KT 10SM OVC009 15/13 A2998 RMK AO2 CIG 007V012 SLP152 T01500128
KDTN 221528Z 29008KT 10SM BKN009 OVC015 15/13 A2998 RMK AO2 CIG 007V012 T01500128
KDTN 221507Z 29009KT 10SM BKN013 BKN018 OVC024 15/13 A2998 RMK AO2 T01500128
KDTN 221453Z 26008KT 10SM FEW010 SCT018 OVC023 16/13 A2997 RMK AO2 SLP147 T01610133 50008
KDTN 221423Z 30009KT 10SM BKN015 OVC020 15/13 A2997 RMK AO2 T01500133
KDTN 221353Z 31007KT 10SM BKN012 OVC022 16/14 A2997 RMK AO2 SLP147 T01560139
KDTN 221344Z 31009KT 10SM BKN012 OVC022 16/14 A2997 RMK AO2 T01560139
KDTN 221320Z 30006KT 10SM SCT006 SCT014 OVC020 15/14 A2997 RMK AO2 T01500139
KDTN 221253Z 32010KT 7SM OVC006 15/14 A2996 RMK AO2 CIG 004V011 SLP145 T01500139
KDTN 221233Z 32011KT 10SM OVC006 15/14 A2996 RMK AO2 CIG 003V011 T01500139
KDTN 221153Z 30006KT 10SM OVC004 16/15 A2994 RMK AO2 SLP138 60017 70227 T01560150 10172 20156 53009
KDTN 221053Z AUTO 32009KT 6SM BR OVC004 16/16 A2994 RMK AO2 SLP136 T01610156
KDTN 221045Z AUTO 30009KT 10SM OVC004 16/16 A2993 RMK AO2 T01610156
KDTN 221022Z AUTO 32010KT 10SM BKN005 OVC043 17/16 A2993 RMK AO2 CIG 004V008 T01670156
KDTN 221008Z AUTO 32004KT 10SM FEW006 BKN043 OVC070 17/16 A2992 RMK AO2 T01670156
KDTN 220953Z AUTO 14003KT 10SM FEW049 SCT060 BKN070 16/16 A2991 RMK AO2 SLP128 T01610156
KDTN 220931Z AUTO 14006KT 10SM FEW015 SCT025 BKN047 16/16 A2992 RMK AO2 T01610156
KDTN 220853Z AUTO 12004KT 10SM BKN020 OVC027 17/16 A2992 RMK AO2 RAE30 SLP128 P0001 60017 T01670161 58010
KDTN 220825Z AUTO 13003KT 10SM -RA SCT004 OVC018 17/16 A2992 RMK AO2 P0001 T01670161
KDTN 220802Z AUTO 35005KT 10SM -RA BKN003 BKN022 OVC090 17/16 A2993 RMK AO2 P0001 T01670161
KDTN 220753Z AUTO 34007KT 9SM -RA SCT003 BKN020 OVC090 17/16 A2992 RMK AO2 CIG 018V035 SLP130 P0012 T01670161
KDTN 220740Z AUTO 11006KT 7SM -RA FEW003 BKN018 OVC095 17/16 A2992 RMK AO2 P0012 T01670161
KDTN 220730Z AUTO 12003KT 3SM -RA BR SCT003 BKN012 OVC020 17/16 A2993 RMK AO2 P0011 T01670161
KDTN 220727Z AUTO 07004KT 2 1/2SM +RA BR BKN003 BKN012 OVC020 17/16 A2993 RMK AO2 VIS 1 1/4V5 P0011 T01670161
KDTN 220720Z AUTO 00000KT 3SM RA BR SCT003 OVC012 17/16 A2994 RMK AO2 LTG DSNT NE P0007 T01670161